createdAt,value
2022-12-11T00:03:02.545Z,99082.27
2022-12-11T00:06:10.598Z,99081.55
2022-12-11T00:09:13.668Z,99083.27
2022-12-11T00:12:17.263Z,99079.61
2022-12-11T00:15:20.810Z,99076.49
2022-12-11T00:18:23.956Z,99077.29
2022-12-11T00:21:26.801Z,99077.48
2022-12-11T00:24:29.575Z,99072.48
2022-12-11T00:27:32.315Z,99070.62
2022-12-11T00:30:38.398Z,99077.15
2022-12-11T00:33:41.473Z,99079.95
2022-12-11T00:36:44.310Z,99088.45
2022-12-11T00:39:47.119Z,99096.76
2022-12-11T00:42:49.983Z,99094.89
2022-12-11T00:45:52.789Z,99096.15
2022-12-11T00:48:55.793Z,99096.67
2022-12-11T00:51:58.659Z,99097.78
2022-12-11T00:55:01.454Z,99096.30
2022-12-11T00:58:04.714Z,99096.55
2022-12-11T01:01:22.016Z,99096.55
2022-12-11T01:04:24.904Z,99097.17
2022-12-11T01:07:27.689Z,99100.80
2022-12-11T01:10:30.792Z,99098.00
2022-12-11T01:13:34.098Z,99100.92
2022-12-11T01:16:36.981Z,99103.23
2022-12-11T01:19:49.213Z,99100.30
2022-12-11T01:22:53.717Z,99096.24
2022-12-11T01:25:56.487Z,99098.17
2022-12-11T01:29:27.026Z,99092.48
2022-12-11T01:32:29.761Z,99094.23
2022-12-11T01:35:32.753Z,99092.73
2022-12-11T01:38:35.726Z,99093.64
2022-12-11T01:41:38.595Z,99094.51
2022-12-11T01:44:41.342Z,99093.14
2022-12-11T01:47:44.381Z,99094.20
2022-12-11T01:51:05.098Z,99096.14
2022-12-11T01:54:11.836Z,99096.48
2022-12-11T01:57:16.429Z,99089.79
2022-12-11T02:00:20.279Z,99093.35
2022-12-11T02:03:23.256Z,99088.70
2022-12-11T02:06:48.304Z,99083.96
2022-12-11T02:09:51.203Z,99080.84
2022-12-11T02:13:15.304Z,99079.98
2022-12-11T02:16:37.338Z,99079.13
2022-12-11T02:19:55.210Z,99080.66
2022-12-11T02:23:13.409Z,99077.04
2022-12-11T02:26:34.946Z,99071.16
2022-12-11T02:29:48.337Z,99066.35
2022-12-11T02:32:57.100Z,99069.60
2022-12-11T02:36:00.827Z,99069.31
2022-12-11T02:39:06.071Z,99063.31
2022-12-11T02:42:11.434Z,99057.83
2022-12-11T02:45:15.296Z,99062.00
2022-12-11T02:48:18.507Z,99056.31
2022-12-11T02:51:27.655Z,99052.14
2022-12-11T02:54:36.358Z,99054.20
2022-12-11T02:57:53.235Z,99049.55
2022-12-11T03:00:56.283Z,99051.48
2022-12-11T03:04:25.317Z,99051.64
2022-12-11T03:07:33.787Z,99058.16
2022-12-11T03:10:36.595Z,99058.65
2022-12-11T03:13:42.685Z,99057.61
2022-12-11T03:17:05.265Z,99058.84
2022-12-11T03:20:42.433Z,99068.05
2022-12-11T03:24:11.321Z,99064.96
2022-12-11T03:27:20.010Z,99068.46
2022-12-11T03:30:25.204Z,99074.10
2022-12-11T03:33:33.026Z,99077.65
2022-12-11T03:36:39.397Z,99081.61
2022-12-11T03:39:50.036Z,99072.78
2022-12-11T03:42:57.017Z,99072.65
2022-12-11T03:46:01.228Z,99076.95
2022-12-11T03:49:20.957Z,99079.14
2022-12-11T03:52:27.461Z,99079.61
2022-12-11T03:55:32.467Z,99078.75
2022-12-11T03:58:35.577Z,99079.14
2022-12-11T04:01:38.429Z,99080.36
2022-12-11T04:04:42.410Z,99082.36
2022-12-11T04:07:45.299Z,99073.10
2022-12-11T04:10:49.007Z,99077.86
2022-12-11T04:14:11.942Z,99077.39
2022-12-11T04:17:34.769Z,99069.80
2022-12-11T04:20:56.094Z,99073.37
2022-12-11T04:24:17.325Z,99078.08
2022-12-11T04:27:38.656Z,99085.54
2022-12-11T04:30:42.884Z,99082.98
2022-12-11T04:33:47.991Z,99083.31
2022-12-11T04:36:51.028Z,99079.07
2022-12-11T04:39:54.132Z,99078.20
2022-12-11T04:42:56.966Z,99077.99
2022-12-11T04:46:07.495Z,99068.77
2022-12-11T04:49:10.374Z,99064.42
2022-12-11T04:52:14.324Z,99060.48
2022-12-11T04:55:43.607Z,99058.62
2022-12-11T04:58:47.001Z,99055.52
2022-12-11T05:01:55.165Z,99052.95
2022-12-11T05:04:58.299Z,99055.32
2022-12-11T05:08:01.141Z,99051.75
2022-12-11T05:11:06.867Z,99043.15
2022-12-11T05:14:09.719Z,99036.73
2022-12-11T05:17:12.624Z,99032.11
2022-12-11T05:20:15.569Z,99038.05
2022-12-11T05:23:18.370Z,99036.11
2022-12-11T05:26:21.488Z,99030.98
2022-12-11T05:29:24.278Z,99032.46
2022-12-11T05:32:27.058Z,99029.83
2022-12-11T05:35:29.845Z,99024.63
2022-12-11T05:38:34.218Z,99022.25
2022-12-11T05:41:37.049Z,99020.08
2022-12-11T05:45:35.495Z,99016.84
2022-12-11T05:48:38.981Z,99013.60
2022-12-11T05:51:43.493Z,99014.04
2022-12-11T05:54:49.665Z,99015.55
2022-12-11T05:57:52.439Z,99012.41
2022-12-11T06:00:55.189Z,99012.05
2022-12-11T06:03:59.266Z,99005.92
2022-12-11T06:07:02.070Z,99002.43
2022-12-11T06:10:05.161Z,99005.23
2022-12-11T06:13:07.969Z,99001.08
2022-12-11T06:16:11.052Z,99000.43
2022-12-11T06:19:15.483Z,98999.29
2022-12-11T06:22:18.494Z,98999.44
2022-12-11T06:25:21.246Z,98998.02
2022-12-11T06:28:23.990Z,99001.27
2022-12-11T06:31:27.326Z,99011.16
2022-12-11T06:34:31.917Z,99013.29
2022-12-11T06:37:36.366Z,99017.23
2022-12-11T06:40:39.153Z,99022.36
2022-12-11T06:43:43.135Z,99021.48
2022-12-11T06:46:47.047Z,99023.41
2022-12-11T06:49:49.822Z,99021.41
2022-12-11T06:52:56.429Z,99019.17
2022-12-11T06:56:08.212Z,99020.94
2022-12-11T06:59:12.830Z,99023.77
2022-12-11T07:02:20.321Z,99025.08
2022-12-11T07:05:24.000Z,99028.08
2022-12-11T07:08:29.094Z,99029.52
2022-12-11T07:11:34.229Z,99033.06
2022-12-11T07:14:37.148Z,99027.81
2022-12-11T07:17:39.961Z,99029.73
2022-12-11T07:20:42.772Z,99025.79
2022-12-11T07:23:45.622Z,99028.80
2022-12-11T07:26:48.413Z,99026.85
2022-12-11T07:29:51.852Z,99030.77
2022-12-11T07:32:54.687Z,99036.23
2022-12-11T07:36:01.796Z,99034.75
2022-12-11T07:39:04.633Z,99041.70
2022-12-11T07:42:07.512Z,99038.66
2022-12-11T07:45:10.853Z,99043.81
2022-12-11T07:48:13.771Z,99048.77
2022-12-11T07:51:28.637Z,99049.20
2022-12-11T07:54:32.321Z,99052.02
2022-12-11T07:57:36.366Z,99053.45
2022-12-11T08:00:39.194Z,99051.09
2022-12-11T08:03:42.618Z,99055.15
2022-12-11T08:06:48.596Z,99053.00
2022-12-11T08:09:51.380Z,99045.91
2022-12-11T08:12:54.266Z,99043.55
2022-12-11T08:15:57.165Z,99047.77
2022-12-11T08:19:01.173Z,99048.33
2022-12-11T08:22:04.186Z,99045.40
2022-12-11T08:25:07.521Z,99043.48
2022-12-11T08:28:10.333Z,99047.41
2022-12-11T08:31:15.259Z,99043.90
2022-12-11T08:34:45.113Z,99045.91
2022-12-11T08:37:47.952Z,99041.07
2022-12-11T08:45:29.778Z,99039.05
2022-12-11T08:48:34.129Z,99041.85
2022-12-11T08:51:36.996Z,99044.66
2022-12-11T08:54:39.885Z,99040.39
2022-12-11T08:57:42.715Z,99043.53
2022-12-11T09:00:45.547Z,99043.77
2022-12-11T09:03:49.329Z,99051.14
2022-12-11T09:06:52.249Z,99045.17
2022-12-11T09:09:56.799Z,99038.56
2022-12-11T09:14:16.988Z,99039.92
2022-12-11T09:17:19.994Z,99036.34
2022-12-11T09:20:22.788Z,99032.60
2022-12-11T09:23:25.866Z,99028.98
2022-12-11T09:26:30.351Z,99025.21
2022-12-11T09:29:33.166Z,99025.17
2022-12-11T09:32:35.992Z,99018.59
2022-12-11T09:35:38.820Z,99020.73
2022-12-11T09:38:44.141Z,99015.05
2022-12-11T09:41:55.611Z,99013.91
2022-12-11T09:45:03.160Z,99011.33
2022-12-11T09:48:07.987Z,99008.84
2022-12-11T09:51:33.333Z,99002.80
2022-12-11T09:54:37.010Z,99002.52
2022-12-11T09:58:10.556Z,99002.11
2022-12-11T10:01:13.391Z,99006.20
2022-12-11T10:04:29.084Z,99003.02
2022-12-11T10:08:20.927Z,98996.80
2022-12-11T10:11:55.900Z,98989.02
2022-12-11T10:15:30.722Z,98977.71
2022-12-11T10:18:34.102Z,98971.81
2022-12-11T10:22:03.146Z,98966.63
2022-12-11T10:25:14.037Z,98960.30
2022-12-11T10:28:20.474Z,98956.14
2022-12-11T10:31:45.093Z,98954.86
2022-12-11T10:34:54.875Z,98952.73
2022-12-11T10:38:10.623Z,98957.30
2022-12-11T10:41:21.432Z,98959.66
2022-12-11T10:44:59.507Z,98957.63
2022-12-11T10:48:13.404Z,98958.33
2022-12-11T10:51:16.627Z,98947.22
2022-12-11T10:54:43.630Z,98950.11
2022-12-11T10:57:55.640Z,98945.92
2022-12-11T11:01:14.290Z,98945.55
2022-12-11T11:04:38.133Z,98941.45
2022-12-11T11:07:41.541Z,98938.17
2022-12-11T11:10:59.116Z,98930.92
2022-12-11T11:14:07.536Z,98925.24
2022-12-11T11:17:15.925Z,98924.58
2022-12-11T11:20:21.949Z,98921.69
2022-12-11T11:23:25.593Z,98919.85
2022-12-11T11:27:04.283Z,98920.41
2022-12-11T11:30:18.738Z,98918.19
2022-12-11T11:33:23.278Z,98913.33
2022-12-11T11:36:28.482Z,98912.21
2022-12-11T11:39:45.314Z,98911.27
2022-12-11T11:43:18.938Z,98908.94
2022-12-11T11:46:49.531Z,98906.21
2022-12-11T11:50:04.447Z,98905.85
2022-12-11T11:53:27.289Z,98904.76
2022-12-11T11:56:37.604Z,98898.04
2022-12-11T11:59:53.506Z,98899.44
2022-12-11T12:03:00.699Z,98895.39
2022-12-11T12:06:26.485Z,98892.89
2022-12-11T12:09:48.412Z,98889.59
2022-12-11T12:13:30.432Z,98884.17
2022-12-11T12:16:54.098Z,98885.41
2022-12-11T12:20:23.213Z,98887.83
2022-12-11T12:23:40.242Z,98883.98
2022-12-11T12:26:57.013Z,98881.27
2022-12-11T12:30:14.039Z,98886.44
2022-12-11T12:33:44.667Z,98885.43
2022-12-11T12:37:26.644Z,98884.64
2022-12-11T12:40:37.957Z,98884.80
2022-12-11T12:44:07.397Z,98881.45
2022-12-11T12:47:15.317Z,98877.00
2022-12-11T12:50:22.124Z,98871.67
2022-12-11T12:53:28.965Z,98869.12
2022-12-11T12:56:32.986Z,98872.23
2022-12-11T12:59:51.590Z,98868.23
2022-12-11T13:02:58.874Z,98868.34
2022-12-11T13:06:04.945Z,98876.81
2022-12-11T13:09:16.191Z,98872.27
2022-12-11T13:12:32.711Z,98865.16
2022-12-11T13:15:44.054Z,98871.64
2022-12-11T13:18:48.548Z,98875.77
2022-12-11T13:22:21.646Z,98874.02
2022-12-11T13:25:28.988Z,98874.80
2022-12-11T13:29:49.411Z,98870.73
2022-12-11T13:33:03.677Z,98873.92
2022-12-11T13:36:34.071Z,98871.77
2022-12-11T13:39:39.584Z,98868.61
2022-12-11T13:42:59.775Z,98870.15
2022-12-11T13:46:10.836Z,98877.68
2022-12-11T13:49:42.547Z,98870.91
2022-12-11T13:52:57.300Z,98870.80
2022-12-11T13:56:03.756Z,98869.52
2022-12-11T13:59:20.524Z,98867.17
2022-12-11T14:02:32.502Z,98863.71
2022-12-11T14:05:35.799Z,98863.65
2022-12-11T14:08:42.675Z,98868.11
2022-12-11T14:11:49.905Z,98869.71
2022-12-11T14:14:59.313Z,98876.82
2022-12-11T14:18:02.276Z,98875.98
2022-12-11T14:21:06.737Z,98872.86
2022-12-11T14:24:14.370Z,98868.74
2022-12-11T14:27:19.131Z,98870.40
2022-12-11T14:30:28.255Z,98873.19
2022-12-11T14:33:37.297Z,98875.23
2022-12-11T14:36:42.040Z,98871.00
2022-12-11T14:39:56.049Z,98867.73
2022-12-11T14:43:03.951Z,98867.88
2022-12-11T14:46:21.195Z,98867.07
2022-12-11T14:49:43.301Z,98868.40
2022-12-11T14:52:49.062Z,98862.77
2022-12-11T14:55:53.189Z,98868.96
2022-12-11T14:59:00.420Z,98867.73
2022-12-11T15:02:46.195Z,98862.30
2022-12-11T15:05:55.089Z,98867.90
2022-12-11T15:08:57.969Z,98869.24
2022-12-11T15:12:15.063Z,98864.41
2022-12-11T15:15:18.498Z,98867.02
2022-12-11T15:18:29.319Z,98871.55
2022-12-11T15:21:35.316Z,98874.35
2022-12-11T15:24:43.762Z,98872.94
2022-12-11T15:27:51.549Z,98870.26
2022-12-11T15:31:02.714Z,98869.05
2022-12-11T15:34:22.271Z,98869.30
2022-12-11T15:37:36.315Z,98870.04
2022-12-11T15:40:39.199Z,98868.25
2022-12-11T15:43:43.750Z,98866.19
2022-12-11T15:46:46.558Z,98866.55
2022-12-11T15:50:22.543Z,98866.23
2022-12-11T15:53:25.392Z,98868.40
2022-12-11T15:56:28.181Z,98871.33
2022-12-11T15:59:31.760Z,98866.23
2022-12-11T16:02:34.584Z,98870.48
2022-12-11T16:05:37.652Z,98873.41
2022-12-11T16:08:40.435Z,98876.27
2022-12-11T16:11:43.223Z,98875.91
2022-12-11T16:14:46.427Z,98860.72
2022-12-11T16:17:49.243Z,98878.92
2022-12-11T16:20:52.421Z,98879.04
2022-12-11T16:23:55.212Z,98879.29
2022-12-11T16:26:58.073Z,98874.49
2022-12-11T16:30:00.936Z,98874.23
2022-12-11T16:33:11.740Z,98872.34
2022-12-11T16:36:17.923Z,98872.89
2022-12-11T16:39:20.729Z,98871.47
2022-12-11T16:42:23.566Z,98867.88
2022-12-11T16:45:27.096Z,98865.16
2022-12-11T16:48:29.965Z,98864.04
2022-12-11T16:51:32.834Z,98866.11
2022-12-11T16:54:35.829Z,98866.91
2022-12-11T16:57:39.201Z,98865.69
2022-12-11T17:00:42.434Z,98869.27
2022-12-11T17:03:45.300Z,98864.80
2022-12-11T17:06:48.835Z,98870.33
2022-12-11T17:09:51.797Z,98863.38
2022-12-11T17:12:54.624Z,98864.75
2022-12-11T17:15:57.539Z,98865.58
2022-12-11T17:19:07.380Z,98865.70
2022-12-11T17:22:10.214Z,98867.69
2022-12-11T17:25:16.769Z,98867.31
2022-12-11T17:28:19.733Z,98863.35
2022-12-11T17:31:22.682Z,98870.50
2022-12-11T17:34:25.508Z,98859.37
2022-12-11T17:37:28.333Z,98859.96
2022-12-11T17:40:31.229Z,98863.41
2022-12-11T17:43:34.139Z,98863.55
2022-12-11T17:46:37.037Z,98865.98
2022-12-11T17:49:40.730Z,98870.04
2022-12-11T17:52:44.424Z,98861.02
2022-12-11T17:55:48.499Z,98862.75
2022-12-11T17:58:51.653Z,98871.02
2022-12-11T18:01:54.509Z,98863.71
2022-12-11T18:04:57.332Z,98865.81
2022-12-11T18:08:00.380Z,98862.30
2022-12-11T18:11:11.791Z,98863.69
2022-12-11T18:14:17.336Z,98862.84
2022-12-11T18:17:20.905Z,98863.96
2022-12-11T18:20:25.131Z,98866.66
2022-12-11T18:23:28.040Z,98862.59
2022-12-11T18:26:31.465Z,98863.06
2022-12-11T18:29:34.962Z,98862.15
2022-12-11T18:32:37.858Z,98863.70
2022-12-11T18:35:41.542Z,98862.75
2022-12-11T18:38:45.352Z,98856.46
2022-12-11T18:42:03.514Z,98859.13
2022-12-11T18:45:11.399Z,98859.53
2022-12-11T18:48:15.442Z,98856.30
2022-12-11T18:51:23.713Z,98857.92
2022-12-11T18:54:26.554Z,98853.35
2022-12-11T18:57:29.447Z,98851.95
2022-12-11T19:00:32.375Z,98857.36
2022-12-11T19:03:35.960Z,98853.79
2022-12-11T19:06:39.343Z,98852.64
2022-12-11T19:09:47.561Z,98850.76
2022-12-11T19:12:50.868Z,98858.20
2022-12-11T19:15:53.711Z,98865.76
2022-12-11T19:19:02.412Z,98866.52
2022-12-11T19:22:05.290Z,98864.48
2022-12-11T19:25:08.560Z,98861.04
2022-12-11T19:28:11.596Z,98861.16
2022-12-11T19:31:17.677Z,98863.44
2022-12-11T19:34:20.958Z,98863.05
2022-12-11T19:37:23.958Z,98867.77
2022-12-11T19:40:26.821Z,98860.86
2022-12-11T19:43:29.689Z,98862.24
2022-12-11T19:46:32.794Z,98863.64
2022-12-11T19:49:35.672Z,98863.27
2022-12-11T19:52:44.461Z,98863.37
2022-12-11T19:55:53.435Z,98862.18
2022-12-11T19:58:56.274Z,98866.67
2022-12-11T20:01:59.155Z,98863.05
2022-12-11T20:05:02.051Z,98858.27
2022-12-11T20:08:35.339Z,98858.08
2022-12-11T20:11:28.441Z,98856.69
2022-12-11T20:14:31.303Z,98862.27
2022-12-11T20:17:34.180Z,98865.57
2022-12-11T20:20:37.420Z,98857.19
2022-12-11T20:23:40.708Z,98861.05
2022-12-11T20:26:43.572Z,98858.45
2022-12-11T20:29:46.515Z,98855.65
2022-12-11T20:32:50.710Z,98848.92
2022-12-11T20:35:53.568Z,98847.41
2022-12-11T20:38:59.400Z,98848.05
2022-12-11T20:42:04.996Z,98853.09
2022-12-11T20:45:08.778Z,98856.23
2022-12-11T20:48:11.679Z,98854.49
2022-12-11T20:51:20.989Z,98858.15
2022-12-11T20:54:28.447Z,98858.65
2022-12-11T20:57:32.702Z,98860.48
2022-12-11T21:00:37.028Z,98859.02
2022-12-11T21:03:42.103Z,98865.42
2022-12-11T21:06:45.218Z,98860.00
2022-12-11T21:09:48.173Z,98854.06
2022-12-11T21:12:50.994Z,98852.56
2022-12-11T21:15:56.908Z,98850.63
2022-12-11T21:18:59.990Z,98852.40
2022-12-11T21:22:04.020Z,98848.01
2022-12-11T21:25:07.082Z,98851.55
2022-12-11T21:28:09.863Z,98850.80
2022-12-11T21:31:16.140Z,98852.85
2022-12-11T21:34:25.375Z,98854.45
2022-12-11T21:37:28.990Z,98852.60
2022-12-11T21:40:31.875Z,98864.23
2022-12-11T21:43:34.784Z,98865.23
2022-12-11T21:46:37.734Z,98867.64
2022-12-11T21:49:40.614Z,98862.34
2022-12-11T21:52:43.483Z,98852.52
2022-12-11T21:55:46.317Z,98845.91
2022-12-11T21:58:51.485Z,98837.74
2022-12-11T22:01:54.431Z,98833.55
2022-12-11T22:05:00.863Z,98831.38
2022-12-11T22:08:03.765Z,98832.29
2022-12-11T22:11:06.903Z,98836.98
2022-12-11T22:14:16.453Z,98840.59
2022-12-11T22:17:19.477Z,98839.02
2022-12-11T22:20:22.306Z,98834.04
2022-12-11T22:23:25.222Z,98828.46
2022-12-11T22:26:28.702Z,98827.94
2022-12-11T22:29:31.686Z,98823.80
2022-12-11T22:32:34.494Z,98827.23
2022-12-11T22:35:37.777Z,98828.11
2022-12-11T22:38:40.653Z,98826.65
2022-12-11T22:41:43.506Z,98832.79
2022-12-11T22:44:46.435Z,98830.72
2022-12-11T22:47:50.914Z,98824.22
2022-12-11T22:50:54.960Z,98818.95
2022-12-11T22:53:58.205Z,98823.80
2022-12-11T22:57:01.519Z,98818.48
2022-12-11T23:00:12.132Z,98819.63
2022-12-11T23:03:15.111Z,98811.80
2022-12-11T23:06:21.426Z,98810.41
2022-12-11T23:09:28.986Z,98810.89
2022-12-11T23:12:31.750Z,98814.19
2022-12-11T23:15:34.803Z,98816.70
2022-12-11T23:18:37.914Z,98817.70
2022-12-11T23:21:41.326Z,98819.87
2022-12-11T23:24:44.338Z,98826.69
2022-12-11T23:27:47.184Z,98824.66
2022-12-11T23:30:50.568Z,98821.23
2022-12-11T23:33:54.360Z,98815.14
2022-12-11T23:36:57.151Z,98822.23
2022-12-11T23:39:59.948Z,98823.27
2022-12-11T23:43:02.792Z,98825.13
2022-12-11T23:46:10.541Z,98823.30
2022-12-11T23:49:13.497Z,98827.46
2022-12-11T23:52:16.323Z,98829.67
2022-12-11T23:55:21.532Z,98825.17
2022-12-11T23:58:24.329Z,98824.83
